Time;durP1;ratioP1;P1;durP2;ratioP2;P2;SDS_P1;SDS_P2;PMS_P1;PMS_P2;Temp;Humidity;BMP_temperature;BMP_pressure;BME280_temperature;BME280_humidity;BME280_pressure;Samples;Min_cycle;Max_cycle;Signal;HPM_P1;HPM_P2
2020/12/26 00:00:11;;;;;;;14.57;8.53;;;-1.90;99.90;;;;;;4981297;28;20534;-44
2020/12/26 00:02:37;;;;;;;13.87;8.03;;;-1.90;99.90;;;;;;4977467;28;20204;-50
2020/12/26 00:05:02;;;;;;;11.80;5.80;;;-1.80;99.90;;;;;;4965420;28;20240;-45
2020/12/26 00:07:28;;;;;;;6.60;4.50;;;-1.80;99.90;;;;;;4966831;28;20554;-51
2020/12/26 00:09:53;;;;;;;6.63;4.57;;;-1.70;99.90;;;;;;4976470;28;20165;-48
2020/12/26 00:12:19;;;;;;;6.57;5.07;;;-1.60;99.90;;;;;;4984032;28;20228;-46
2020/12/26 00:14:44;;;;;;;9.07;5.93;;;-1.50;99.90;;;;;;4965175;28;21623;-48
2020/12/26 00:17:10;;;;;;;9.87;5.73;;;-1.50;99.90;;;;;;4981717;28;20202;-49
2020/12/26 00:19:35;;;;;;;12.83;5.67;;;-1.50;99.90;;;;;;4961697;28;20191;-50
2020/12/26 00:22:00;;;;;;;6.30;4.67;;;-1.50;99.90;;;;;;4979770;28;20232;-45
2020/12/26 00:24:26;;;;;;;9.13;5.30;;;-1.50;99.90;;;;;;4966935;28;20265;-47
2020/12/26 00:26:54;;;;;;;8.43;4.50;;;-1.40;99.90;;;;;;4978506;28;20651;-45
2020/12/26 00:29:20;;;;;;;6.80;4.60;;;-1.40;99.90;;;;;;4967647;28;20538;-51
2020/12/26 00:31:47;;;;;;;6.93;4.80;;;-1.30;99.90;;;;;;4979142;28;20181;-45
2020/12/26 00:34:13;;;;;;;5.87;4.03;;;-1.30;99.90;;;;;;4974201;28;20193;-49
2020/12/26 00:36:38;;;;;;;7.60;4.67;;;-1.30;99.90;;;;;;4962562;28;20265;-46
2020/12/26 00:39:04;;;;;;;7.20;5.57;;;-1.30;99.90;;;;;;4983020;28;20190;-46
2020/12/26 00:41:29;;;;;;;8.77;5.23;;;-1.20;99.90;;;;;;4977804;28;20225;-51
2020/12/26 00:43:55;;;;;;;6.83;5.60;;;-1.20;99.90;;;;;;4971049;28;20230;-45
2020/12/26 00:46:22;;;;;;;8.40;5.00;;;-1.20;99.90;;;;;;4979362;28;20196;-46
2020/12/26 00:48:48;;;;;;;8.03;4.73;;;-1.20;99.90;;;;;;4983431;28;20217;-44
2020/12/26 00:51:14;;;;;;;6.37;5.50;;;-1.20;99.90;;;;;;4964608;28;20966;-47
2020/12/26 00:53:40;;;;;;;7.97;6.03;;;-1.10;99.90;;;;;;4979176;28;20293;-46
2020/12/26 00:56:05;;;;;;;8.50;6.30;;;-1.10;99.90;;;;;;4981777;28;20910;-45
2020/12/26 00:58:31;;;;;;;12.03;6.03;;;-1.10;99.90;;;;;;4970661;28;20185;-46
2020/12/26 01:00:56;;;;;;;8.53;5.57;;;-1.10;99.90;;;;;;4981373;28;20204;-44
2020/12/26 01:03:22;;;;;;;10.70;6.23;;;-1.00;99.90;;;;;;4975533;28;20210;-43
2020/12/26 01:05:47;;;;;;;8.60;5.60;;;-1.00;99.90;;;;;;4968869;28;20205;-51
2020/12/26 01:08:12;;;;;;;7.63;5.27;;;-1.00;99.90;;;;;;4969880;28;20901;-46
2020/12/26 01:10:38;;;;;;;9.90;5.60;;;-0.90;99.90;;;;;;4976572;28;20178;-44
2020/12/26 01:13:03;;;;;;;11.27;5.90;;;-0.80;99.90;;;;;;4973219;28;20635;-51
2020/12/26 01:15:29;;;;;;;8.63;5.70;;;-0.70;99.90;;;;;;4971416;28;20204;-48
2020/12/26 01:17:54;;;;;;;9.53;6.10;;;-0.70;99.90;;;;;;4977156;28;20229;-46
2020/12/26 01:20:20;;;;;;;12.80;6.47;;;-0.70;99.90;;;;;;4980608;28;20247;-48
2020/12/26 01:22:45;;;;;;;7.93;6.43;;;-0.70;99.90;;;;;;4958551;28;20251;-45
2020/12/26 01:25:12;;;;;;;11.07;6.40;;;-0.70;99.90;;;;;;4972391;28;20178;-46
2020/12/26 01:27:37;;;;;;;10.63;5.63;;;-0.70;99.90;;;;;;4984030;28;20386;-46
2020/12/26 01:30:04;;;;;;;8.47;6.33;;;-0.70;99.90;;;;;;4976520;28;20714;-48
2020/12/26 01:32:29;;;;;;;8.80;5.97;;;-0.70;99.90;;;;;;4970426;28;20308;-44
2020/12/26 01:34:59;;;;;;;7.40;6.00;;;-0.70;99.90;;;;;;4975816;28;20268;-44
2020/12/26 01:37:26;;;;;;;8.00;6.90;;;-0.70;99.90;;;;;;4954894;28;20248;-44
2020/12/26 01:39:51;;;;;;;8.73;6.50;;;-0.60;99.90;;;;;;4974683;28;20182;-46
2020/12/26 01:42:17;;;;;;;8.37;6.57;;;-0.60;99.90;;;;;;4972553;28;20914;-44
2020/12/26 01:44:43;;;;;;;8.90;6.40;;;-0.60;99.90;;;;;;4968419;28;20178;-44
2020/12/26 01:47:09;;;;;;;9.30;6.37;;;-0.60;99.90;;;;;;4969724;28;20182;-44
2020/12/26 01:49:35;;;;;;;8.13;6.17;;;-0.70;99.90;;;;;;4975366;28;20558;-44
2020/12/26 01:52:02;;;;;;;8.43;6.67;;;-0.70;99.90;;;;;;4961255;28;20210;-48
2020/12/26 01:54:28;;;;;;;10.23;7.10;;;-0.70;99.90;;;;;;4972531;28;20171;-45
2020/12/26 01:56:55;;;;;;;9.13;6.57;;;-0.70;99.90;;;;;;4976180;28;20251;-46
2020/12/26 01:59:20;;;;;;;8.17;5.97;;;-0.70;99.90;;;;;;4975863;28;20170;-46
2020/12/26 02:01:49;;;;;;;12.03;7.07;;;-0.60;99.90;;;;;;4970019;28;20230;-48
2020/12/26 02:04:14;;;;;;;8.83;5.97;;;-0.60;99.90;;;;;;4975429;28;20189;-44
2020/12/26 02:06:46;;;;;;;10.13;6.87;;;-0.60;99.90;;;;;;4968054;28;20198;-47
2020/12/26 02:09:12;;;;;;;9.97;7.00;;;-0.60;99.90;;;;;;4969798;28;21017;-44
2020/12/26 02:11:38;;;;;;;11.73;7.63;;;-0.60;99.90;;;;;;4985542;28;20269;-51
2020/12/26 02:14:04;;;;;;;13.93;8.30;;;-0.60;99.90;;;;;;4971767;28;20189;-45
2020/12/26 02:16:29;;;;;;;16.73;7.87;;;-0.70;99.90;;;;;;4981277;28;20270;-48
2020/12/26 02:18:55;;;;;;;13.70;8.03;;;-0.60;99.90;;;;;;4968668;28;20268;-48
2020/12/26 02:21:26;;;;;;;16.60;9.00;;;-0.60;99.90;;;;;;4977968;28;20186;-46
2020/12/26 02:23:51;;;;;;;13.20;8.73;;;-0.60;99.90;;;;;;4950110;28;20964;-50
2020/12/26 02:26:28;;;;;;;10.73;8.13;;;-0.60;99.90;;;;;;4966892;28;20178;-47
2020/12/26 02:28:53;;;;;;;9.87;8.13;;;-0.60;99.90;;;;;;4974523;28;20228;-49
2020/12/26 02:31:19;;;;;;;14.60;7.67;;;-0.70;99.90;;;;;;4971209;28;20213;-49
2020/12/26 02:33:44;;;;;;;13.93;8.93;;;-0.70;99.90;;;;;;4973245;28;20218;-48
2020/12/26 02:36:10;;;;;;;14.23;9.20;;;-0.70;99.90;;;;;;4981970;28;20202;-48
2020/12/26 02:38:35;;;;;;;15.33;9.53;;;-0.70;99.90;;;;;;4972119;28;20197;-44
2020/12/26 02:41:01;;;;;;;12.07;9.50;;;-0.70;99.90;;;;;;4978085;28;20189;-46
2020/12/26 02:43:26;;;;;;;15.77;9.87;;;-0.60;99.90;;;;;;4970207;28;20199;-47
2020/12/26 02:45:54;;;;;;;14.67;10.27;;;-0.60;99.90;;;;;;4978225;28;20829;-47
2020/12/26 02:48:21;;;;;;;17.53;10.47;;;-0.60;99.90;;;;;;4986802;28;20213;-50
2020/12/26 02:50:47;;;;;;;15.67;10.53;;;-0.60;99.90;;;;;;4965571;28;20213;-47
2020/12/26 02:53:13;;;;;;;18.30;10.10;;;-0.50;99.90;;;;;;4970668;28;20289;-47
2020/12/26 02:55:38;;;;;;;16.67;10.80;;;-0.50;99.90;;;;;;4969465;28;20245;-48
2020/12/26 02:58:04;;;;;;;15.67;11.07;;;-0.50;99.90;;;;;;4978287;28;20192;-44
2020/12/26 03:00:29;;;;;;;20.17;11.40;;;-0.50;99.90;;;;;;4976573;28;20182;-47
2020/12/26 03:02:55;;;;;;;19.00;12.07;;;-0.50;99.90;;;;;;4975947;28;20194;-49
2020/12/26 03:05:20;;;;;;;17.67;11.63;;;-0.60;99.90;;;;;;4977422;28;20272;-47
2020/12/26 03:07:46;;;;;;;19.77;11.13;;;-0.60;99.90;;;;;;4976845;28;20205;-45
2020/12/26 03:10:12;;;;;;;19.60;11.53;;;-0.60;99.90;;;;;;4967439;28;20689;-45
2020/12/26 03:12:37;;;;;;;18.57;11.87;;;-0.60;99.90;;;;;;4977497;28;20217;-50
2020/12/26 03:15:03;;;;;;;21.63;12.83;;;-0.60;99.90;;;;;;4982942;28;20323;-44
2020/12/26 03:17:29;;;;;;;19.47;11.77;;;-0.60;99.90;;;;;;4975361;28;20205;-52
2020/12/26 03:19:54;;;;;;;17.87;12.00;;;-0.60;99.90;;;;;;4982602;28;20866;-46
2020/12/26 03:22:20;;;;;;;18.57;12.70;;;-0.60;99.90;;;;;;4977252;28;20213;-44
2020/12/26 03:24:45;;;;;;;18.93;12.17;;;-0.60;99.90;;;;;;4966741;28;20207;-48
2020/12/26 03:27:11;;;;;;;18.07;12.67;;;-0.60;99.90;;;;;;4978749;28;20635;-45
2020/12/26 03:29:36;;;;;;;17.13;11.57;;;-0.60;99.90;;;;;;4979401;28;20182;-51
2020/12/26 03:32:02;;;;;;;19.27;11.43;;;-0.60;99.90;;;;;;4972396;28;20213;-49
2020/12/26 03:34:27;;;;;;;18.13;11.40;;;-0.60;99.90;;;;;;4984407;28;20194;-46
2020/12/26 03:36:53;;;;;;;16.47;10.27;;;-0.60;99.90;;;;;;4973306;28;20185;-48
2020/12/26 03:39:19;;;;;;;14.70;10.67;;;-0.60;99.90;;;;;;4985173;28;20198;-51
2020/12/26 03:41:45;;;;;;;19.83;10.97;;;-0.60;99.90;;;;;;4968055;28;20205;-48
2020/12/26 03:44:10;;;;;;;15.80;10.67;;;-0.60;99.90;;;;;;4981171;28;20551;-50
2020/12/26 03:46:36;;;;;;;17.70;11.17;;;-0.60;99.90;;;;;;4986763;28;20278;-46
2020/12/26 03:49:01;;;;;;;12.67;9.93;;;-0.60;99.90;;;;;;4987774;28;20215;-46
2020/12/26 03:51:26;;;;;;;16.83;9.87;;;-0.50;99.90;;;;;;4975986;28;20533;-46
2020/12/26 03:53:52;;;;;;;14.53;9.40;;;-0.50;99.90;;;;;;4982151;28;20207;-49
2020/12/26 03:56:18;;;;;;;16.03;10.03;;;-0.50;99.90;;;;;;4962263;28;20201;-52
2020/12/26 03:58:44;;;;;;;14.87;10.47;;;-0.50;99.90;;;;;;4975280;28;20257;-49
2020/12/26 04:01:10;;;;;;;15.57;10.23;;;-0.50;99.90;;;;;;4971533;28;20205;-52
2020/12/26 04:03:36;;;;;;;12.23;9.20;;;-0.50;99.90;;;;;;4976265;28;20525;-48
2020/12/26 04:06:02;;;;;;;14.10;9.60;;;-0.50;99.90;;;;;;4984614;28;20638;-48
2020/12/26 04:08:27;;;;;;;13.83;9.23;;;-0.50;99.90;;;;;;4981780;28;20543;-53
2020/12/26 04:10:53;;;;;;;14.23;9.00;;;-0.50;99.90;;;;;;4978514;28;20193;-45
2020/12/26 04:13:18;;;;;;;16.50;9.80;;;-0.40;99.90;;;;;;4964705;28;20269;-45
2020/12/26 04:15:44;;;;;;;13.97;9.47;;;-0.40;99.90;;;;;;4972107;28;20183;-49
2020/12/26 04:18:09;;;;;;;13.50;9.30;;;-0.40;99.90;;;;;;4976147;28;20193;-45
2020/12/26 04:20:35;;;;;;;15.07;10.53;;;-0.40;99.90;;;;;;4982548;28;20178;-52
2020/12/26 04:23:01;;;;;;;17.93;9.40;;;-0.40;99.90;;;;;;4970028;28;20206;-45
2020/12/26 04:25:26;;;;;;;13.83;9.43;;;-0.40;99.90;;;;;;4975555;28;20688;-49
2020/12/26 04:27:52;;;;;;;14.60;8.93;;;-0.40;99.90;;;;;;4966644;28;20944;-47
2020/12/26 04:30:17;;;;;;;15.90;9.47;;;-0.40;99.90;;;;;;4976127;28;20181;-47
2020/12/26 04:32:43;;;;;;;15.87;9.73;;;-0.30;99.90;;;;;;4961549;28;20211;-44
2020/12/26 04:35:08;;;;;;;20.87;9.83;;;-0.30;99.90;;;;;;4983641;28;20185;-46
2020/12/26 04:37:34;;;;;;;16.37;9.43;;;-0.30;99.90;;;;;;4964216;28;20216;-47
2020/12/26 04:39:59;;;;;;;12.77;9.27;;;-0.30;99.90;;;;;;4971518;28;20208;-45
2020/12/26 04:42:25;;;;;;;15.97;9.20;;;-0.20;99.90;;;;;;4968139;28;20206;-47
2020/12/26 04:44:52;;;;;;;15.93;10.60;;;-0.20;99.90;;;;;;4969957;28;20187;-43
2020/12/26 04:47:27;;;;;;;16.17;9.13;;;-0.20;99.90;;;;;;4976897;28;20182;-47
2020/12/26 04:49:58;;;;;;;12.03;9.27;;;-0.20;99.90;;;;;;4971348;28;20260;-47
2020/12/26 04:52:28;;;;;;;15.87;9.53;;;-0.10;99.90;;;;;;4986502;28;20210;-47
2020/12/26 04:54:54;;;;;;;17.87;9.57;;;-0.10;99.90;;;;;;4979155;28;20186;-51
2020/12/26 04:57:21;;;;;;;16.87;10.20;;;-0.10;99.90;;;;;;4987808;28;20197;-48
2020/12/26 04:59:46;;;;;;;22.37;10.90;;;-0.10;99.90;;;;;;4959004;28;20202;-48
2020/12/26 05:02:15;;;;;;;14.87;10.13;;;0.00;99.90;;;;;;4974737;28;20218;-51
2020/12/26 05:04:43;;;;;;;19.30;11.27;;;0.00;99.90;;;;;;4977209;28;20244;-48
2020/12/26 05:07:10;;;;;;;14.97;9.90;;;0.00;99.90;;;;;;4979252;28;20189;-49
2020/12/26 05:09:36;;;;;;;14.77;9.30;;;0.00;99.90;;;;;;4969985;28;20175;-49
2020/12/26 05:12:02;;;;;;;17.17;9.93;;;0.10;99.90;;;;;;4977865;28;20231;-44
2020/12/26 05:14:29;;;;;;;14.60;9.60;;;0.10;99.90;;;;;;4958579;28;20191;-48
2020/12/26 05:16:56;;;;;;;16.47;10.27;;;0.10;99.90;;;;;;4984704;28;20187;-48
2020/12/26 05:19:22;;;;;;;15.83;10.27;;;0.10;99.90;;;;;;4976155;28;20528;-47
2020/12/26 05:21:52;;;;;;;17.63;10.53;;;0.20;99.90;;;;;;4967111;28;20210;-52
2020/12/26 05:24:18;;;;;;;15.30;9.43;;;0.20;99.90;;;;;;4981696;28;20232;-47
2020/12/26 05:26:45;;;;;;;18.90;10.83;;;0.20;99.90;;;;;;4973454;28;20786;-50
2020/12/26 05:29:12;;;;;;;17.00;9.87;;;0.20;99.90;;;;;;4970868;28;20301;-44
2020/12/26 05:31:53;;;;;;;15.07;9.87;;;0.30;99.90;;;;;;4976284;28;20171;-51
2020/12/26 05:34:19;;;;;;;17.23;9.67;;;0.30;99.90;;;;;;4966750;28;20189;-47
2020/12/26 05:36:45;;;;;;;16.43;10.40;;;0.30;99.90;;;;;;4981140;28;20183;-47
2020/12/26 05:39:12;;;;;;;16.00;10.03;;;0.30;99.90;;;;;;4976961;28;20203;-46
2020/12/26 05:41:39;;;;;;;13.83;9.27;;;0.30;99.90;;;;;;4973090;28;20194;-51
2020/12/26 05:44:05;;;;;;;12.87;8.93;;;0.30;99.90;;;;;;4986300;28;20248;-47
2020/12/26 05:46:31;;;;;;;14.30;9.00;;;0.30;99.90;;;;;;4955615;28;20218;-48
2020/12/26 05:48:56;;;;;;;13.93;9.30;;;0.40;99.90;;;;;;4973115;28;20216;-46
2020/12/26 05:51:28;;;;;;;13.83;9.77;;;0.40;99.90;;;;;;4969731;28;20183;-48
2020/12/26 05:53:55;;;;;;;17.70;9.87;;;0.40;99.90;;;;;;4964851;28;20214;-44
2020/12/26 05:56:21;;;;;;;20.00;9.53;;;0.50;99.90;;;;;;4975021;28;20190;-47
2020/12/26 05:58:47;;;;;;;12.03;8.80;;;0.50;99.90;;;;;;4980533;28;20827;-47
2020/12/26 06:01:21;;;;;;;16.63;10.43;;;0.50;99.90;;;;;;4962757;28;20200;-50
2020/12/26 06:03:47;;;;;;;15.20;9.37;;;0.50;99.90;;;;;;4974348;28;20197;-45
2020/12/26 06:06:15;;;;;;;18.43;10.07;;;0.60;99.90;;;;;;4974526;28;20217;-50
2020/12/26 06:08:40;;;;;;;16.27;9.73;;;0.60;99.90;;;;;;4962653;28;20214;-48
2020/12/26 06:11:07;;;;;;;15.67;10.17;;;0.60;99.90;;;;;;4986965;28;20682;-45
2020/12/26 06:13:35;;;;;;;17.83;10.17;;;0.60;99.90;;;;;;4978027;28;20211;-47
2020/12/26 06:16:24;;;;;;;16.17;9.63;;;0.60;99.90;;;;;;4978011;28;20281;-48
2020/12/26 06:18:56;;;;;;;14.33;9.90;;;0.70;99.90;;;;;;4974438;28;20281;-44
2020/12/26 06:21:23;;;;;;;13.17;9.27;;;0.70;99.90;;;;;;4979699;28;20197;-51
2020/12/26 06:23:50;;;;;;;13.90;10.17;;;0.70;99.90;;;;;;4982361;28;20209;-45
2020/12/26 06:26:17;;;;;;;18.57;9.57;;;0.70;99.90;;;;;;4975453;28;20227;-54
2020/12/26 06:28:44;;;;;;;18.03;10.67;;;0.80;99.90;;;;;;4966433;28;20582;-46
2020/12/26 06:31:10;;;;;;;16.30;10.03;;;0.80;99.90;;;;;;4966867;28;20244;-52
2020/12/26 06:33:44;;;;;;;15.80;9.73;;;0.80;99.90;;;;;;4960841;28;20338;-47
2020/12/26 06:36:11;;;;;;;16.67;10.10;;;0.80;99.90;;;;;;4973626;28;20180;-47
2020/12/26 06:38:37;;;;;;;14.57;10.13;;;0.80;99.90;;;;;;4969439;28;20271;-51
2020/12/26 06:41:07;;;;;;;16.27;9.63;;;0.80;99.90;;;;;;4975360;28;20203;-46
2020/12/26 06:43:45;;;;;;;15.87;9.33;;;0.90;99.90;;;;;;4975999;28;20326;-47
2020/12/26 06:46:14;;;;;;;14.07;9.20;;;0.90;99.90;;;;;;4985492;28;20203;-44
2020/12/26 06:48:40;;;;;;;14.30;9.27;;;0.90;99.90;;;;;;4962852;28;20275;-46
2020/12/26 06:51:23;;;;;;;15.37;9.17;;;0.90;99.90;;;;;;4973793;28;20201;-49
2020/12/26 06:53:49;;;;;;;11.03;8.70;;;1.00;99.90;;;;;;4975321;28;20206;-48
2020/12/26 06:56:35;;;;;;;14.30;8.60;;;1.00;99.90;;;;;;4976030;28;20190;-45
2020/12/26 06:59:01;;;;;;;11.23;8.60;;;1.00;99.90;;;;;;4978284;28;20191;-45
2020/12/26 07:01:27;;;;;;;16.37;9.03;;;1.00;99.90;;;;;;4982385;28;20514;-46
2020/12/26 07:04:10;;;;;;;23.57;8.80;;;1.10;99.90;;;;;;4966276;28;20223;-50
2020/12/26 07:06:37;;;;;;;12.07;8.63;;;1.10;99.90;;;;;;4968178;28;20175;-51
2020/12/26 07:09:03;;;;;;;13.83;8.07;;;1.10;99.90;;;;;;4978491;28;20253;-49
2020/12/26 07:11:29;;;;;;;12.93;8.60;;;1.20;99.90;;;;;;4968203;28;20202;-49
2020/12/26 07:13:54;;;;;;;10.70;7.97;;;1.20;99.90;;;;;;4977613;28;20215;-45
2020/12/26 07:16:45;;;;;;;10.77;8.63;;;1.20;99.90;;;;;;4967376;28;20231;-49
2020/12/26 07:19:19;;;;;;;9.47;7.33;;;1.20;99.90;;;;;;4957917;28;20202;-50
2020/12/26 07:22:06;;;;;;;11.70;7.43;;;1.20;99.90;;;;;;4984282;28;20180;-44
2020/12/26 07:24:37;;;;;;;9.33;7.30;;;1.30;99.90;;;;;;4981114;28;20228;-43
2020/12/26 07:27:19;;;;;;;13.43;7.80;;;1.30;99.90;;;;;;4973016;28;20766;-44
2020/12/26 07:29:51;;;;;;;13.73;7.80;;;1.30;99.90;;;;;;4983829;28;20190;-49
2020/12/26 07:32:35;;;;;;;8.27;7.20;;;1.30;99.90;;;;;;4972205;28;20298;-51
2020/12/26 07:35:04;;;;;;;10.80;7.83;;;1.30;99.90;;;;;;4967334;28;20290;-46
2020/12/26 07:37:29;;;;;;;9.97;6.77;;;1.40;99.90;;;;;;4965676;28;20199;-45
2020/12/26 07:39:55;;;;;;;10.57;7.40;;;1.40;99.90;;;;;;4975077;28;20182;-46
2020/12/26 07:42:22;;;;;;;10.57;7.17;;;1.40;99.90;;;;;;4975549;28;20202;-51
2020/12/26 07:44:48;;;;;;;8.93;7.37;;;1.40;99.90;;;;;;4981348;28;20714;-46
2020/12/26 07:47:15;;;;;;;12.47;7.20;;;1.40;99.90;;;;;;4969378;28;20196;-48
2020/12/26 07:49:40;;;;;;;9.90;7.20;;;1.40;99.90;;;;;;4957916;28;20232;-48
2020/12/26 07:52:07;;;;;;;9.37;7.17;;;1.40;99.90;;;;;;4975790;28;20215;-48
2020/12/26 07:54:33;;;;;;;13.90;6.90;;;1.40;99.90;;;;;;4967961;28;21003;-46
2020/12/26 07:56:59;;;;;;;12.47;7.67;;;1.50;99.90;;;;;;4978999;28;20196;-47
2020/12/26 07:59:25;;;;;;;12.47;6.87;;;1.50;99.90;;;;;;4975779;28;20275;-47
2020/12/26 08:01:55;;;;;;;8.07;6.70;;;1.50;99.90;;;;;;4972701;28;20661;-50
2020/12/26 08:04:21;;;;;;;10.53;6.40;;;1.60;99.90;;;;;;4957789;28;20216;-46
2020/12/26 08:06:49;;;;;;;9.80;7.10;;;1.60;99.90;;;;;;4969516;28;20257;-49
2020/12/26 08:09:16;;;;;;;7.17;6.27;;;1.60;99.90;;;;;;4966116;28;20228;-50
2020/12/26 08:11:42;;;;;;;9.20;6.17;;;1.60;99.90;;;;;;4977716;28;20205;-50
2020/12/26 08:14:08;;;;;;;12.73;6.13;;;1.60;99.90;;;;;;4966924;28;20910;-47
2020/12/26 08:16:35;;;;;;;7.67;5.77;;;1.60;99.90;;;;;;4980134;28;20876;-46
2020/12/26 08:19:05;;;;;;;9.17;6.17;;;1.70;99.90;;;;;;4963087;28;20208;-47
2020/12/26 08:21:32;;;;;;;7.03;6.07;;;1.70;99.90;;;;;;4958318;28;20196;-47
2020/12/26 08:24:02;;;;;;;9.37;6.10;;;1.70;99.90;;;;;;4965401;28;20195;-47
2020/12/26 08:26:29;;;;;;;8.43;6.00;;;1.70;99.90;;;;;;4976680;28;20544;-47
2020/12/26 08:29:01;;;;;;;6.70;5.50;;;1.80;99.90;;;;;;4959077;28;20756;-49
2020/12/26 08:31:27;;;;;;;7.23;5.77;;;1.80;99.90;;;;;;4973946;28;20184;-45
2020/12/26 08:34:19;;;;;;;7.63;5.87;;;1.80;99.90;;;;;;4968636;28;20564;-44
2020/12/26 08:36:53;;;;;;;6.97;5.50;;;1.80;99.90;;;;;;4960473;28;20192;-45
2020/12/26 08:39:19;;;;;;;7.00;5.20;;;1.80;99.90;;;;;;4963306;28;20727;-51
2020/12/26 08:41:46;;;;;;;12.00;5.97;;;1.90;99.90;;;;;;4978705;28;20183;-47
2020/12/26 08:44:13;;;;;;;8.77;5.37;;;1.90;99.90;;;;;;4989493;28;20686;-47
2020/12/26 08:46:43;;;;;;;6.00;5.00;;;1.90;99.90;;;;;;4997386;28;20199;-45
2020/12/26 08:49:09;;;;;;;9.33;5.43;;;1.90;99.90;;;;;;4990398;28;20578;-45
2020/12/26 08:51:40;;;;;;;7.80;5.33;;;1.90;99.90;;;;;;4968923;28;20192;-47
2020/12/26 08:54:15;;;;;;;6.33;4.90;;;1.90;99.90;;;;;;4972547;28;20219;-49
2020/12/26 08:56:41;;;;;;;6.00;4.77;;;1.90;99.90;;;;;;4975536;28;20189;-47
2020/12/26 08:59:06;;;;;;;5.73;4.53;;;2.00;99.90;;;;;;4981155;28;20249;-49
2020/12/26 09:01:32;;;;;;;6.47;4.60;;;2.00;99.90;;;;;;4976287;28;20195;-47
2020/12/26 09:03:58;;;;;;;7.00;4.63;;;2.00;99.90;;;;;;4971491;28;20211;-49
2020/12/26 09:06:42;;;;;;;9.13;4.63;;;2.00;99.90;;;;;;4966536;28;20187;-50
2020/12/26 09:09:18;;;;;;;5.57;4.07;;;2.00;99.90;;;;;;4979586;28;20211;-48
2020/12/26 09:11:45;;;;;;;5.13;3.87;;;2.10;99.90;;;;;;4971290;28;20204;-49
2020/12/26 09:14:15;;;;;;;5.53;4.10;;;2.10;99.90;;;;;;4966666;28;20275;-44
2020/12/26 09:16:40;;;;;;;6.10;3.93;;;2.10;99.90;;;;;;4979195;28;20275;-51
2020/12/26 09:19:06;;;;;;;6.87;3.80;;;2.10;99.90;;;;;;4978413;28;20223;-47
2020/12/26 09:21:31;;;;;;;9.63;4.20;;;2.20;99.90;;;;;;4957218;28;20219;-51
2020/12/26 09:23:57;;;;;;;5.83;4.27;;;2.20;99.90;;;;;;4978552;28;20542;-51
2020/12/26 09:26:28;;;;;;;6.30;3.80;;;2.20;99.90;;;;;;4975057;28;20194;-48
2020/12/26 09:28:59;;;;;;;6.03;4.00;;;2.20;99.90;;;;;;4976214;28;20208;-48
2020/12/26 09:31:30;;;;;;;7.37;3.50;;;2.20;99.90;;;;;;4978050;28;20221;-47
2020/12/26 09:33:58;;;;;;;5.70;3.57;;;2.30;99.90;;;;;;4981967;28;20220;-47
2020/12/26 09:36:26;;;;;;;4.07;3.73;;;2.20;99.90;;;;;;4973346;28;20188;-48
2020/12/26 09:38:52;;;;;;;6.47;3.30;;;2.30;99.90;;;;;;4963531;28;20189;-51
2020/12/26 09:41:25;;;;;;;9.50;4.03;;;2.30;99.90;;;;;;4973926;28;20280;-51
2020/12/26 09:43:55;;;;;;;5.83;3.90;;;2.30;99.90;;;;;;4982914;28;20245;-46
2020/12/26 09:46:22;;;;;;;6.47;3.80;;;2.30;99.90;;;;;;4967744;28;20222;-51
2020/12/26 09:48:48;;;;;;;4.70;3.60;;;2.30;99.90;;;;;;4986144;28;20212;-48
2020/12/26 09:51:16;;;;;;;9.20;4.00;;;2.40;99.90;;;;;;4983885;28;20181;-44
2020/12/26 09:53:42;;;;;;;7.80;4.00;;;2.40;99.90;;;;;;4972410;28;20219;-46
2020/12/26 09:56:09;;;;;;;5.97;3.67;;;2.40;99.90;;;;;;4985433;28;20263;-51
2020/12/26 09:58:35;;;;;;;7.80;4.23;;;2.40;99.90;;;;;;4991760;28;20196;-43
2020/12/26 10:01:00;;;;;;;4.37;3.97;;;2.40;99.90;;;;;;5003388;28;20183;-47
2020/12/26 10:03:26;;;;;;;5.53;3.50;;;2.50;99.90;;;;;;4983947;28;20776;-48
2020/12/26 10:05:52;;;;;;;8.57;3.40;;;2.50;99.90;;;;;;4999798;28;20174;-47
2020/12/26 10:08:17;;;;;;;6.70;4.13;;;2.50;99.90;;;;;;4988646;28;20223;-53
2020/12/26 10:10:42;;;;;;;3.90;3.60;;;2.50;99.90;;;;;;4980496;28;20193;-45
2020/12/26 10:13:08;;;;;;;7.73;4.37;;;2.60;99.90;;;;;;4976303;28;20220;-53
2020/12/26 10:15:33;;;;;;;12.13;4.00;;;2.50;99.90;;;;;;4975918;28;20979;-45
2020/12/26 10:17:59;;;;;;;6.10;3.43;;;2.60;99.90;;;;;;4977152;28;20306;-51
2020/12/26 10:20:24;;;;;;;7.03;4.37;;;2.60;99.90;;;;;;4960256;28;20181;-44
2020/12/26 10:22:50;;;;;;;6.07;4.40;;;2.60;99.90;;;;;;4964152;28;20202;-49
2020/12/26 10:25:15;;;;;;;6.50;4.63;;;2.60;99.90;;;;;;4962037;28;20332;-50
2020/12/26 10:27:41;;;;;;;7.10;4.67;;;2.70;99.90;;;;;;4973861;28;20343;-45
2020/12/26 10:30:06;;;;;;;7.77;4.30;;;2.70;99.90;;;;;;4982836;28;20217;-47
2020/12/26 10:32:31;;;;;;;7.10;4.53;;;2.70;99.90;;;;;;4975832;28;20223;-50
2020/12/26 10:34:57;;;;;;;8.00;4.67;;;2.70;99.90;;;;;;4983616;28;20182;-44
2020/12/26 10:37:22;;;;;;;4.50;4.10;;;2.70;99.90;;;;;;4978964;28;20258;-45
2020/12/26 10:39:48;;;;;;;5.37;3.87;;;2.70;99.90;;;;;;4967272;28;20200;-46
2020/12/26 10:42:13;;;;;;;5.37;4.33;;;2.80;99.90;;;;;;4968777;28;20202;-48
2020/12/26 10:44:39;;;;;;;9.10;4.00;;;2.80;99.90;;;;;;4975957;28;20253;-47
2020/12/26 10:47:04;;;;;;;4.90;3.73;;;2.80;99.90;;;;;;4983189;28;20217;-50
2020/12/26 10:49:30;;;;;;;8.43;4.10;;;2.80;99.90;;;;;;4975790;28;20208;-48
2020/12/26 10:51:55;;;;;;;8.87;4.37;;;2.80;99.90;;;;;;4983211;28;20267;-51
2020/12/26 10:54:21;;;;;;;7.53;3.83;;;2.90;99.90;;;;;;4968941;28;20186;-43
2020/12/26 10:56:47;;;;;;;6.50;3.70;;;2.80;99.90;;;;;;4990275;28;20197;-48
2020/12/26 10:59:13;;;;;;;5.27;3.93;;;2.80;99.90;;;;;;4987337;28;20196;-47
2020/12/26 11:01:38;;;;;;;6.47;3.70;;;2.90;99.90;;;;;;4980340;28;20255;-51
2020/12/26 11:04:04;;;;;;;5.17;3.70;;;2.90;99.90;;;;;;4972531;28;20768;-52
2020/12/26 11:06:29;;;;;;;8.63;3.97;;;2.90;99.90;;;;;;4981288;28;20821;-49
2020/12/26 11:08:55;;;;;;;5.90;3.80;;;2.90;99.90;;;;;;4986927;28;20271;-51
2020/12/26 11:11:21;;;;;;;4.33;3.87;;;2.90;99.90;;;;;;4960433;28;21045;-51
2020/12/26 11:13:46;;;;;;;6.27;3.80;;;3.00;99.90;;;;;;4975340;28;20304;-53
2020/12/26 11:16:16;;;;;;;7.00;4.00;;;3.00;99.90;;;;;;4979438;28;20214;-44
2020/12/26 11:18:43;;;;;;;7.40;4.07;;;3.00;99.90;;;;;;4981902;28;20686;-45
2020/12/26 11:21:14;;;;;;;8.60;4.07;;;3.10;99.90;;;;;;4972471;28;20225;-44
2020/12/26 11:23:39;;;;;;;5.80;3.60;;;3.10;99.90;;;;;;4985002;28;20204;-49
2020/12/26 11:26:05;;;;;;;4.30;3.90;;;3.10;99.90;;;;;;4971502;28;20197;-49
2020/12/26 11:28:30;;;;;;;6.50;3.70;;;3.20;99.90;;;;;;4980798;28;20288;-47
2020/12/26 11:30:56;;;;;;;9.63;4.97;;;3.20;99.90;;;;;;4986140;28;20220;-45
2020/12/26 11:33:21;;;;;;;7.17;4.40;;;3.20;99.90;;;;;;4975079;28;20232;-45
2020/12/26 11:35:47;;;;;;;5.27;4.50;;;3.30;99.90;;;;;;4984913;28;20248;-47
2020/12/26 11:38:12;;;;;;;7.07;4.83;;;3.30;99.90;;;;;;4987068;28;20205;-43
2020/12/26 11:40:38;;;;;;;4.63;4.20;;;3.30;99.90;;;;;;4986189;28;20222;-45
2020/12/26 11:43:04;;;;;;;6.83;5.03;;;3.40;99.90;;;;;;4963576;28;20209;-48
2020/12/26 11:45:30;;;;;;;5.90;5.30;;;3.40;99.90;;;;;;4973130;28;20178;-45
2020/12/26 11:47:55;;;;;;;8.97;6.07;;;3.40;99.90;;;;;;4983283;28;20218;-48
2020/12/26 11:50:21;;;;;;;6.20;5.57;;;3.40;99.90;;;;;;4972795;28;20663;-45
2020/12/26 11:52:46;;;;;;;11.30;5.47;;;3.40;99.90;;;;;;4989082;28;20801;-46
2020/12/26 11:55:12;;;;;;;6.17;5.17;;;3.50;99.90;;;;;;4983320;28;20441;-44
2020/12/26 11:57:37;;;;;;;9.13;5.83;;;3.50;99.90;;;;;;4973169;28;20186;-46
2020/12/26 12:00:03;;;;;;;11.40;5.67;;;3.50;99.90;;;;;;4975401;28;20228;-48
2020/12/26 12:02:29;;;;;;;8.67;6.20;;;3.50;99.90;;;;;;4963192;28;20217;-47
2020/12/26 12:04:54;;;;;;;9.70;4.97;;;3.50;99.90;;;;;;4985940;28;20188;-48
2020/12/26 12:07:20;;;;;;;7.23;5.80;;;3.50;99.90;;;;;;4977756;28;20924;-47
2020/12/26 12:09:45;;;;;;;7.53;5.73;;;3.50;99.90;;;;;;4986867;28;20205;-50
2020/12/26 12:12:11;;;;;;;6.03;5.33;;;3.60;99.90;;;;;;4985030;28;20217;-50
2020/12/26 12:14:36;;;;;;;9.77;5.93;;;3.60;99.90;;;;;;4969851;28;20201;-46
2020/12/26 12:17:02;;;;;;;9.67;6.50;;;3.60;99.90;;;;;;4973316;28;20242;-50
2020/12/26 12:19:27;;;;;;;7.50;6.77;;;3.60;99.90;;;;;;4970528;28;20926;-46
2020/12/26 12:21:53;;;;;;;8.47;6.03;;;3.60;99.90;;;;;;4974025;28;20574;-44
2020/12/26 12:24:18;;;;;;;7.33;6.10;;;3.60;99.90;;;;;;4980621;28;20243;-46
2020/12/26 12:26:43;;;;;;;7.10;6.33;;;3.70;99.90;;;;;;4984679;28;20186;-45
2020/12/26 12:29:09;;;;;;;10.93;6.90;;;3.70;99.90;;;;;;4969633;28;20705;-47
2020/12/26 12:31:39;;;;;;;9.73;5.67;;;3.70;99.90;;;;;;4979226;28;20182;-44
2020/12/26 12:34:05;;;;;;;10.93;6.50;;;3.70;99.90;;;;;;4978761;28;20686;-45
2020/12/26 12:36:31;;;;;;;9.87;6.73;;;3.70;99.90;;;;;;4978654;28;20469;-44
2020/12/26 12:38:56;;;;;;;11.37;6.97;;;3.70;99.90;;;;;;4985202;28;20181;-49
2020/12/26 12:41:22;;;;;;;7.13;6.43;;;3.80;99.90;;;;;;4978853;28;20180;-51
2020/12/26 12:43:47;;;;;;;9.97;6.53;;;3.80;99.90;;;;;;4967431;28;20710;-46